Airport Name : Ignacio Agramonte Intl

Other Name : Camaguey

ICAO : MUCM

IATA : CMW

FAA :

Latitude : 21.420278

Longitude : -77.8475

Country : Cuba

Local Date and Time : 1/23/2018 12:50:00 AM

 

TAF (Terminal Aerodrome Forecast)

MUCM 230500Z 2306/2406 08005KT 9000 FEW020 BECMG 2315/2317 08010KT SCT020 BECMG 2401/2403 08005KT

 

METAR (METeorological Aerodrome Report)

MUCM 230450Z 07009KT 9000 FEW020 22/22 Q1017

MUCM 230350Z 07009KT 9000 SCT020 22/21 Q1017

MUCM 230250Z 06009KT 9000 BKN020 23/21 Q1017